logo
Rechercher aéroport 
image banner adimage banner adimage banner ad
image banner ad

SJVV - Fazenda Viviane

Situé à Duere, Brazil

ICAO - SJVV, IATA -

Données fournies par Airmate  

Information générale

Coordonnées: S11°24'43" W49°23'9"
Élévation : 734 feet MSL.
Variation magnétique : -21.255418399° East
Voir autres Aéroports à Tocatins

Données opérationnelles

Special qualification required
Heure actuelle UTC:
Heure actuelle locale:
Météo à : - ( 0 km )
METAR: YSNF 220817Z AUTO 19009KT 9999 // BKN016 BKN020 BKN031 17/14 Q1017
Voir NOTAMs / SUP AIP / TFR affectant cet aéroport [VIEW]
Fréquences de communication: [VIEW]

Pistes:

Identifiant RWYQFULongueur (ft)Largeur (ft)SurfaceLDA (ft)
11262566OTHER
29262566OTHER

Coordonnées de l'aéroport

Adresse: Duere Brazil

Vue satellite de SJVV